テヘラン の空港の天気 - METARとTAF

メヘラーバード国際空港(テヘラン) ( OIII / THR ) - イラン テヘラン
飛行場実況気象(Metar)
観測時間01/19 14:30 IRST (01/19 11:00 UTC)
風向・風速西南西 3m/s
視程10km以上
天気現象
少しの雲 雲底高度 1220m
全天の4割程度の雲 雲底高度 3050m
全天の8割程度の雲 雲底高度 6100m
気温4℃
湿度48%
気圧1015hPa
METAROIII 191100Z 24006KT 9999 FEW040 SCT100 BKN200 04/M06 Q1015 A2999
過去の天気等 Google飛行場航空写真 Wunderground天気予報

過去48時間のMETAR

飛行場予報(TAF)
発表時間: 1/19 09:00 IRST (1/19 05:30 UTC)
予報対象時間: 19日9時 IRST ~ 20日15時 IRST
風向・風速南南西 4m/s
視程8000m
少しの雲 雲底高度 1220m
TAF OIII 190530Z 1906/2012 20008KT 8000 FEW040